Time;durP1;ratioP1;P1;durP2;ratioP2;P2;SDS_P1;SDS_P2;PMS_P1;PMS_P2;Temp;Humidity;BMP_temperature;BMP_pressure;BME280_temperature;BME280_humidity;BME280_pressure;Samples;Min_cycle;Max_cycle;Signal;HPM_P1;HPM_P2
2021/11/14 00:00:26;;;;;;;18.93;13.90;;;9.20;99.90;;;;;;5004393;28;20990;-76
2021/11/14 00:02:57;;;;;;;23.10;13.40;;;9.20;99.90;;;;;;4997504;28;20498;-74
2021/11/14 00:05:23;;;;;;;18.10;13.67;;;9.20;99.90;;;;;;5001791;28;20482;-74
2021/11/14 00:07:49;;;;;;;16.60;13.10;;;9.20;99.90;;;;;;5008893;28;20516;-74
2021/11/14 00:10:15;;;;;;;18.53;13.80;;;9.20;99.90;;;;;;5008434;28;20528;-75
2021/11/14 00:12:41;;;;;;;21.57;15.73;;;9.20;99.90;;;;;;5006634;28;20508;-75
2021/11/14 00:15:08;;;;;;;20.83;14.63;;;9.30;99.90;;;;;;5001190;28;20466;-75
2021/11/14 00:17:34;;;;;;;17.30;13.60;;;9.20;99.90;;;;;;4998983;28;20698;-75
2021/11/14 00:20:02;;;;;;;18.67;14.13;;;9.20;99.90;;;;;;5006842;28;20454;-74
2021/11/14 00:22:28;;;;;;;18.50;14.60;;;9.20;99.90;;;;;;5004901;28;20855;-75
2021/11/14 00:24:53;;;;;;;22.13;13.50;;;9.10;99.90;;;;;;5007924;28;20477;-74
2021/11/14 00:27:19;;;;;;;20.80;14.30;;;9.20;99.90;;;;;;5008002;28;20214;-73
2021/11/14 00:29:45;;;;;;;21.43;14.90;;;9.20;99.90;;;;;;5001756;28;20212;-74
2021/11/14 00:32:10;;;;;;;18.67;14.23;;;9.20;99.90;;;;;;5006976;28;20211;-74
2021/11/14 00:34:37;;;;;;;21.43;15.47;;;9.10;99.90;;;;;;5006578;28;20179;-76
2021/11/14 00:37:04;;;;;;;19.07;14.00;;;9.20;99.90;;;;;;5005524;28;20196;-75
2021/11/14 00:39:30;;;;;;;20.43;13.67;;;9.20;99.90;;;;;;5005263;28;21647;-74
2021/11/14 00:41:56;;;;;;;17.77;13.33;;;9.20;99.90;;;;;;5009951;28;20485;-74
2021/11/14 00:44:22;;;;;;;18.23;13.43;;;9.20;99.90;;;;;;5008149;28;20456;-75
2021/11/14 00:46:51;;;;;;;19.33;13.73;;;9.20;99.90;;;;;;5007041;28;20482;-75
2021/11/14 00:49:16;;;;;;;19.53;14.07;;;9.20;99.90;;;;;;5008184;28;20184;-75
2021/11/14 00:51:42;;;;;;;22.50;14.50;;;9.20;99.90;;;;;;5006425;28;20450;-75
2021/11/14 00:54:08;;;;;;;16.20;12.60;;;9.20;99.90;;;;;;5016989;28;20666;-76
2021/11/14 00:56:34;;;;;;;17.70;13.30;;;9.20;99.90;;;;;;5015905;28;20271;-76
2021/11/14 00:59:01;;;;;;;17.23;14.60;;;9.10;99.90;;;;;;5028544;28;20238;-76
2021/11/14 01:01:27;;;;;;;20.70;13.07;;;9.10;99.90;;;;;;5014154;28;20546;-76
2021/11/14 01:03:53;;;;;;;18.17;13.73;;;9.10;99.90;;;;;;4999022;28;20981;-74
2021/11/14 01:06:19;;;;;;;19.33;13.20;;;9.20;99.90;;;;;;4992627;28;20458;-75
2021/11/14 01:08:45;;;;;;;19.80;13.07;;;9.20;99.90;;;;;;5004308;28;20462;-75
2021/11/14 01:11:11;;;;;;;14.33;12.80;;;9.10;99.90;;;;;;5010577;28;20969;-75
2021/11/14 01:13:39;;;;;;;17.30;13.37;;;9.20;99.90;;;;;;5005037;28;20200;-74
2021/11/14 01:16:08;;;;;;;18.93;12.80;;;9.20;99.90;;;;;;5005198;28;20469;-74
2021/11/14 01:18:34;;;;;;;33.43;14.13;;;9.10;99.90;;;;;;5011650;28;20446;-75
2021/11/14 01:21:02;;;;;;;17.80;13.13;;;9.20;99.90;;;;;;5004164;28;20512;-75
2021/11/14 01:23:28;;;;;;;16.27;12.90;;;9.20;99.90;;;;;;5005051;28;20478;-75
2021/11/14 01:25:54;;;;;;;17.50;12.37;;;9.20;99.90;;;;;;5012609;28;20461;-75
2021/11/14 01:28:20;;;;;;;19.73;12.57;;;9.20;99.90;;;;;;5010979;28;20484;-74
2021/11/14 01:30:50;;;;;;;18.17;13.70;;;9.20;99.90;;;;;;5005798;28;20306;-74
2021/11/14 01:33:17;;;;;;;20.97;14.53;;;9.10;99.90;;;;;;5008836;28;21059;-75
2021/11/14 01:35:44;;;;;;;20.50;13.33;;;9.10;99.90;;;;;;5001953;28;21626;-75
2021/11/14 01:38:10;;;;;;;19.13;12.83;;;9.10;99.90;;;;;;5006529;28;20462;-75
2021/11/14 01:40:42;;;;;;;16.27;11.20;;;9.10;99.90;;;;;;5003982;28;20474;-73
2021/11/14 01:43:12;;;;;;;18.60;12.43;;;9.10;99.90;;;;;;5015160;28;20523;-74
2021/11/14 01:45:39;;;;;;;17.60;13.20;;;9.10;99.90;;;;;;5011588;28;20470;-75
2021/11/14 01:48:05;;;;;;;20.90;13.80;;;9.00;99.90;;;;;;5004876;28;20545;-75
2021/11/14 01:50:32;;;;;;;17.30;12.80;;;9.00;99.90;;;;;;5008644;28;20481;-74
2021/11/14 01:52:59;;;;;;;18.80;12.20;;;9.00;99.90;;;;;;5011229;28;20457;-75
2021/11/14 01:55:28;;;;;;;19.70;12.70;;;9.00;99.90;;;;;;5005111;28;20454;-75
2021/11/14 01:57:56;;;;;;;14.97;12.50;;;9.00;99.90;;;;;;5006655;28;20557;-75
2021/11/14 02:00:32;;;;;;;16.83;13.47;;;9.10;99.90;;;;;;5006611;28;20468;-75
2021/11/14 02:02:58;;;;;;;20.87;13.27;;;9.10;99.90;;;;;;5007706;28;20524;-75
2021/11/14 02:05:26;;;;;;;16.63;13.33;;;9.10;99.90;;;;;;5004003;28;20470;-74
2021/11/14 02:07:57;;;;;;;16.20;13.00;;;9.10;99.90;;;;;;5005654;28;20494;-74
2021/11/14 02:10:27;;;;;;;20.73;13.17;;;9.00;99.90;;;;;;5006808;28;20934;-74
2021/11/14 02:12:53;;;;;;;14.90;12.77;;;9.00;99.90;;;;;;5009512;28;20481;-75
2021/11/14 02:15:19;;;;;;;16.70;13.37;;;9.00;99.90;;;;;;5007895;28;20917;-75
2021/11/14 02:17:46;;;;;;;17.10;12.80;;;9.10;99.90;;;;;;5010950;28;20833;-75
2021/11/14 02:20:14;;;;;;;14.03;11.00;;;9.10;99.90;;;;;;5002390;28;21064;-76
2021/11/14 02:22:40;;;;;;;17.07;12.77;;;9.00;99.90;;;;;;5005047;28;20494;-76
2021/11/14 02:25:08;;;;;;;16.70;13.27;;;9.00;99.90;;;;;;5003863;28;20811;-76
2021/11/14 02:27:34;;;;;;;17.27;12.73;;;9.00;99.90;;;;;;5006161;28;20215;-75
2021/11/14 02:30:00;;;;;;;16.47;12.73;;;9.00;99.90;;;;;;5010507;28;20438;-74
2021/11/14 02:32:26;;;;;;;16.87;12.47;;;9.00;99.90;;;;;;5008240;28;20490;-74
2021/11/14 02:34:52;;;;;;;17.10;13.10;;;9.00;99.90;;;;;;5012209;28;20853;-74
2021/11/14 02:37:18;;;;;;;16.60;13.23;;;8.90;99.90;;;;;;5007988;28;20446;-74
2021/11/14 02:39:43;;;;;;;18.53;14.00;;;8.90;99.90;;;;;;5004707;28;20516;-74
2021/11/14 02:42:09;;;;;;;15.53;12.30;;;8.90;99.90;;;;;;5008484;28;20349;-75
2021/11/14 02:44:35;;;;;;;16.47;12.50;;;8.90;99.90;;;;;;5008621;28;20188;-75
2021/11/14 02:47:01;;;;;;;18.80;13.47;;;8.90;99.90;;;;;;5004300;28;20470;-74
2021/11/14 02:49:26;;;;;;;13.70;11.60;;;8.90;99.90;;;;;;5009433;28;20195;-75
2021/11/14 02:51:53;;;;;;;17.57;11.60;;;8.90;99.90;;;;;;5009535;28;20241;-75
2021/11/14 02:54:20;;;;;;;17.53;12.70;;;8.90;99.90;;;;;;5009036;28;20187;-75
2021/11/14 02:56:46;;;;;;;15.67;12.93;;;8.90;99.90;;;;;;5006384;28;20454;-76
2021/11/14 02:59:12;;;;;;;16.43;13.37;;;8.80;99.90;;;;;;5010071;28;20469;-75
2021/11/14 03:01:45;;;;;;;14.90;12.63;;;8.80;99.90;;;;;;5006560;28;21070;-74
2021/11/14 03:04:19;;;;;;;16.07;12.40;;;8.70;99.90;;;;;;5001840;28;20489;-75
2021/11/14 03:06:46;;;;;;;15.60;12.87;;;8.80;99.90;;;;;;5006959;28;20454;-75
2021/11/14 03:09:12;;;;;;;16.50;12.17;;;8.70;99.90;;;;;;5009564;28;20462;-75
2021/11/14 03:11:38;;;;;;;15.87;12.30;;;8.60;99.90;;;;;;5004691;28;20451;-75
2021/11/14 03:14:05;;;;;;;15.60;11.97;;;8.60;99.90;;;;;;5007185;28;21150;-75
2021/11/14 03:16:32;;;;;;;16.30;12.40;;;8.60;99.90;;;;;;5006446;28;20458;-75
2021/11/14 03:18:59;;;;;;;17.63;12.50;;;8.50;99.90;;;;;;5010011;28;20476;-75
2021/11/14 03:21:27;;;;;;;17.43;13.00;;;8.50;99.90;;;;;;5003090;28;20486;-75
2021/11/14 03:23:54;;;;;;;16.17;11.67;;;8.50;99.90;;;;;;4994133;28;20446;-75
2021/11/14 03:26:21;;;;;;;15.70;12.17;;;8.50;99.90;;;;;;5007421;28;20796;-75
2021/11/14 03:28:46;;;;;;;12.70;10.00;;;8.50;99.90;;;;;;5005867;28;21260;-75
2021/11/14 03:31:13;;;;;;;14.90;11.60;;;8.50;99.90;;;;;;5009816;28;20478;-75
2021/11/14 03:33:39;;;;;;;16.90;12.00;;;8.50;99.90;;;;;;5007282;28;20192;-75
2021/11/14 03:36:14;;;;;;;12.67;11.30;;;8.40;99.90;;;;;;5013310;28;20958;-75
2021/11/14 03:38:52;;;;;;;14.00;11.67;;;8.40;99.90;;;;;;5007223;28;20515;-74
2021/11/14 03:41:22;;;;;;;13.13;11.27;;;8.30;99.90;;;;;;5006649;28;20913;-74
2021/11/14 03:43:50;;;;;;;20.07;13.30;;;8.30;99.90;;;;;;5010010;28;20723;-74
2021/11/14 03:46:16;;;;;;;15.47;13.10;;;8.30;99.90;;;;;;5007427;28;20470;-74
2021/11/14 03:48:47;;;;;;;16.43;12.93;;;8.30;99.90;;;;;;5004760;28;21252;-75
2021/11/14 03:51:14;;;;;;;17.20;13.87;;;8.30;99.90;;;;;;5009836;28;20854;-74
2021/11/14 03:53:43;;;;;;;18.47;14.73;;;8.30;99.90;;;;;;5008377;28;20549;-75
2021/11/14 03:56:10;;;;;;;18.63;13.73;;;8.20;99.90;;;;;;5009530;28;20481;-74
2021/11/14 03:58:36;;;;;;;15.37;12.77;;;8.20;99.90;;;;;;5011571;28;22218;-75
2021/11/14 04:01:06;;;;;;;18.30;14.83;;;8.30;99.90;;;;;;5006732;28;20505;-75
2021/11/14 04:03:32;;;;;;;15.27;13.60;;;8.20;99.90;;;;;;5006076;28;20493;-75
2021/11/14 04:05:58;;;;;;;23.27;13.77;;;8.20;99.90;;;;;;5012636;28;20462;-75
2021/11/14 04:08:25;;;;;;;19.60;13.67;;;8.20;99.90;;;;;;5002687;28;21338;-75
2021/11/14 04:10:54;;;;;;;18.93;14.10;;;8.20;99.90;;;;;;5017487;28;20443;-75
2021/11/14 04:13:20;;;;;;;15.07;12.90;;;8.20;99.90;;;;;;5028198;28;20916;-75
2021/11/14 04:15:47;;;;;;;18.60;13.17;;;8.10;99.90;;;;;;5016972;28;20955;-75
2021/11/14 04:18:12;;;;;;;16.57;12.93;;;8.00;99.90;;;;;;5003774;28;20462;-75
2021/11/14 04:20:41;;;;;;;23.23;13.00;;;8.10;99.90;;;;;;5003874;28;20441;-76
2021/11/14 04:23:08;;;;;;;19.23;14.07;;;8.10;99.90;;;;;;4999861;28;20200;-75
2021/11/14 04:25:34;;;;;;;19.60;14.03;;;8.00;99.90;;;;;;5011626;28;20828;-74
2021/11/14 04:28:00;;;;;;;15.23;11.93;;;8.00;99.90;;;;;;5010673;28;20604;-74
2021/11/14 04:30:27;;;;;;;16.97;13.20;;;8.00;99.90;;;;;;5002006;28;20485;-74
2021/11/14 04:32:55;;;;;;;16.60;13.60;;;7.90;99.90;;;;;;5006566;28;20443;-74
2021/11/14 04:35:21;;;;;;;18.37;14.20;;;7.90;99.90;;;;;;5008923;28;21212;-74
2021/11/14 04:37:49;;;;;;;16.83;12.47;;;7.90;99.90;;;;;;5013290;28;20545;-74
2021/11/14 04:40:17;;;;;;;16.43;12.20;;;8.00;99.90;;;;;;5011258;28;20541;-74
2021/11/14 04:42:43;;;;;;;16.50;13.20;;;7.90;99.90;;;;;;5011715;28;20586;-74
2021/11/14 04:45:09;;;;;;;21.03;11.90;;;7.80;99.90;;;;;;5010814;28;20561;-74
2021/11/14 04:47:36;;;;;;;17.70;12.43;;;7.80;99.90;;;;;;5009703;28;20450;-74
2021/11/14 04:50:04;;;;;;;15.43;11.53;;;7.80;99.90;;;;;;5010429;28;20549;-74
2021/11/14 04:52:30;;;;;;;15.67;11.87;;;7.70;99.90;;;;;;5009818;28;20465;-74
2021/11/14 04:54:56;;;;;;;17.70;12.10;;;7.60;99.90;;;;;;5012150;28;20963;-75
2021/11/14 04:57:22;;;;;;;15.23;10.63;;;7.60;99.90;;;;;;5012962;28;20215;-74
2021/11/14 04:59:47;;;;;;;13.50;9.53;;;7.60;99.90;;;;;;5004706;28;20245;-74
2021/11/14 05:02:13;;;;;;;13.37;9.70;;;7.50;99.90;;;;;;5000147;28;20663;-74
2021/11/14 05:04:39;;;;;;;14.17;10.43;;;7.50;99.90;;;;;;5004683;28;20192;-75
2021/11/14 05:07:05;;;;;;;14.43;11.00;;;7.40;99.90;;;;;;5014075;28;20192;-74
2021/11/14 05:09:30;;;;;;;12.17;10.30;;;7.50;99.90;;;;;;5000270;28;20246;-74
2021/11/14 05:11:56;;;;;;;15.20;9.87;;;7.40;99.90;;;;;;5004590;28;20199;-75
2021/11/14 05:14:21;;;;;;;13.80;9.73;;;7.40;99.90;;;;;;5013885;28;20204;-74
2021/11/14 05:16:47;;;;;;;12.43;10.00;;;7.40;99.90;;;;;;5002945;28;20664;-74
2021/11/14 05:19:13;;;;;;;13.90;10.93;;;7.30;99.90;;;;;;5011535;28;20192;-75
2021/11/14 05:21:39;;;;;;;13.27;9.90;;;7.40;99.90;;;;;;5011843;28;21023;-74
2021/11/14 05:24:08;;;;;;;11.47;9.23;;;7.40;99.90;;;;;;5006307;28;22505;-74
2021/11/14 05:26:35;;;;;;;12.40;9.37;;;7.40;99.90;;;;;;5004219;28;20474;-75
2021/11/14 05:29:01;;;;;;;13.30;9.20;;;7.40;99.90;;;;;;5015186;28;20855;-74
2021/11/14 05:31:27;;;;;;;13.07;9.77;;;7.40;99.90;;;;;;5009616;28;20842;-74
2021/11/14 05:33:52;;;;;;;19.40;11.17;;;7.30;99.90;;;;;;5011915;28;20478;-74
2021/11/14 05:36:18;;;;;;;13.87;10.67;;;7.40;99.90;;;;;;5008942;28;20211;-74
2021/11/14 05:38:44;;;;;;;14.10;11.30;;;7.40;99.90;;;;;;5007307;28;20203;-74
2021/11/14 05:41:10;;;;;;;12.77;10.47;;;7.30;99.90;;;;;;5004988;28;20224;-74
2021/11/14 05:43:35;;;;;;;16.13;11.57;;;7.30;99.90;;;;;;5005484;28;20218;-74
2021/11/14 05:46:01;;;;;;;16.60;12.80;;;7.30;99.90;;;;;;5010335;28;20198;-74
2021/11/14 05:48:27;;;;;;;17.37;12.83;;;7.40;99.90;;;;;;5008243;28;20198;-75
2021/11/14 05:50:54;;;;;;;18.17;13.33;;;7.40;99.90;;;;;;5007568;28;20199;-74
2021/11/14 05:53:20;;;;;;;15.80;11.97;;;7.40;99.90;;;;;;5009435;28;20471;-74
2021/11/14 05:55:45;;;;;;;17.77;12.63;;;7.30;99.90;;;;;;5007465;28;20453;-74
2021/11/14 05:58:16;;;;;;;15.70;12.73;;;7.20;99.90;;;;;;5010873;28;21314;-74
2021/11/14 06:05:48;;;;;;;18.80;14.43;;;7.30;99.90;;;;;;5013732;28;20184;-74
2021/11/14 06:08:20;;;;;;;20.37;14.30;;;7.30;99.90;;;;;;5009191;28;21116;-74
2021/11/14 06:10:49;;;;;;;20.30;14.67;;;7.30;99.90;;;;;;5009146;28;20190;-74
2021/11/14 06:13:15;;;;;;;20.43;15.73;;;7.30;99.90;;;;;;5007652;28;20498;-74
2021/11/14 06:15:41;;;;;;;22.40;15.70;;;7.30;99.90;;;;;;5012467;28;20891;-74
2021/11/14 06:18:07;;;;;;;24.37;18.50;;;7.30;99.90;;;;;;5004445;28;20458;-74
2021/11/14 06:20:33;;;;;;;25.00;17.03;;;7.20;99.90;;;;;;5006229;28;20175;-74
2021/11/14 06:22:58;;;;;;;24.60;17.80;;;7.30;99.90;;;;;;5004088;28;20216;-73
2021/11/14 06:25:24;;;;;;;27.23;18.53;;;7.40;99.90;;;;;;5002330;28;20196;-73
2021/11/14 06:27:50;;;;;;;27.90;19.53;;;7.30;99.90;;;;;;5001529;28;20278;-74
2021/11/14 06:30:19;;;;;;;30.90;19.93;;;7.30;99.90;;;;;;5001701;28;20271;-74
2021/11/14 06:32:45;;;;;;;26.60;19.27;;;7.30;99.90;;;;;;4995815;28;20180;-74
2021/11/14 06:35:11;;;;;;;26.80;20.53;;;7.30;99.90;;;;;;5009240;28;20451;-74
2021/11/14 06:37:37;;;;;;;31.23;20.97;;;7.30;99.90;;;;;;5016471;28;20822;-74
2021/11/14 06:40:05;;;;;;;23.83;17.60;;;7.30;99.90;;;;;;5012450;28;20454;-73
2021/11/14 06:42:30;;;;;;;23.20;17.60;;;7.30;99.90;;;;;;5002345;28;20216;-74
2021/11/14 06:44:56;;;;;;;24.43;17.40;;;7.30;99.90;;;;;;5012334;28;20520;-74
2021/11/14 06:47:22;;;;;;;20.00;15.10;;;7.20;99.90;;;;;;5016148;28;20279;-74
2021/11/14 06:49:51;;;;;;;21.97;15.83;;;7.20;99.90;;;;;;5010413;28;20748;-74
2021/11/14 06:52:17;;;;;;;19.63;15.33;;;7.20;99.90;;;;;;5006353;28;20612;-73
2021/11/14 06:54:43;;;;;;;16.73;14.47;;;7.20;99.90;;;;;;5010464;28;20465;-74
2021/11/14 06:57:09;;;;;;;15.70;12.90;;;7.20;99.90;;;;;;4998480;28;20451;-74
2021/11/14 06:59:38;;;;;;;18.10;13.77;;;7.20;99.90;;;;;;5008058;28;20216;-74
2021/11/14 07:02:05;;;;;;;18.07;13.37;;;7.20;99.90;;;;;;5004921;28;20228;-73
2021/11/14 07:04:30;;;;;;;18.20;13.67;;;7.10;99.90;;;;;;5003666;28;20458;-73
2021/11/14 07:06:56;;;;;;;17.10;13.87;;;7.10;99.90;;;;;;5012811;28;21115;-73
2021/11/14 07:09:22;;;;;;;18.40;13.90;;;7.10;99.90;;;;;;5013591;28;20199;-73
2021/11/14 07:11:47;;;;;;;18.00;13.03;;;7.10;99.90;;;;;;5009532;28;20199;-73
2021/11/14 07:14:13;;;;;;;21.53;15.00;;;7.10;99.90;;;;;;5005474;28;20246;-73
2021/11/14 07:16:38;;;;;;;19.13;14.17;;;7.10;99.90;;;;;;5011289;28;20222;-73
2021/11/14 07:19:04;;;;;;;19.37;15.03;;;7.00;99.90;;;;;;5007094;28;20187;-73
2021/11/14 07:21:30;;;;;;;31.00;16.23;;;7.00;99.90;;;;;;5010411;28;20226;-73
2021/11/14 07:23:56;;;;;;;31.23;18.50;;;6.90;99.90;;;;;;5006735;28;20254;-73
2021/11/14 07:26:22;;;;;;;27.27;18.60;;;6.90;99.90;;;;;;5011142;28;20463;-73
2021/11/14 07:28:48;;;;;;;30.90;19.20;;;6.90;99.90;;;;;;5014388;28;20477;-73
2021/11/14 07:31:14;;;;;;;25.20;17.30;;;7.00;99.90;;;;;;5005548;28;20185;-73
2021/11/14 07:33:39;;;;;;;21.13;15.13;;;7.10;99.90;;;;;;5013948;28;20199;-73
2021/11/14 07:36:05;;;;;;;23.27;15.47;;;7.00;99.90;;;;;;5011143;28;20453;-73
2021/11/14 07:38:31;;;;;;;20.97;14.80;;;7.00;99.90;;;;;;5003752;28;20596;-73
2021/11/14 07:40:57;;;;;;;23.70;15.37;;;7.00;99.90;;;;;;5002867;28;20184;-73
2021/11/14 07:43:22;;;;;;;23.60;14.73;;;7.00;99.90;;;;;;5002936;28;20218;-73
2021/11/14 07:45:48;;;;;;;19.53;14.67;;;7.00;99.90;;;;;;4990643;28;20196;-73
2021/11/14 07:48:13;;;;;;;20.60;14.53;;;7.00;99.90;;;;;;5004702;28;20184;-73
2021/11/14 07:50:40;;;;;;;18.80;13.50;;;7.00;99.90;;;;;;5002788;28;20244;-73
2021/11/14 07:53:06;;;;;;;18.00;13.90;;;7.10;99.90;;;;;;5001606;28;20220;-74
2021/11/14 07:55:33;;;;;;;20.50;14.10;;;7.10;99.90;;;;;;5012024;28;20503;-76
2021/11/14 07:58:00;;;;;;;20.90;14.97;;;7.10;99.90;;;;;;5000107;28;20521;-73
2021/11/14 08:00:26;;;;;;;19.50;14.00;;;7.10;99.90;;;;;;5004610;28;20455;-73
2021/11/14 08:02:52;;;;;;;23.63;15.33;;;7.10;99.90;;;;;;5005227;28;20526;-74
2021/11/14 08:05:19;;;;;;;26.37;17.30;;;7.10;99.90;;;;;;5006860;28;21380;-73
2021/11/14 08:07:45;;;;;;;22.73;16.07;;;7.10;99.90;;;;;;5011387;28;20454;-74
2021/11/14 08:10:12;;;;;;;26.10;17.33;;;7.10;99.90;;;;;;5007569;28;20462;-73
2021/11/14 08:12:38;;;;;;;24.67;17.43;;;7.10;99.90;;;;;;5009099;28;20534;-74
2021/11/14 08:15:04;;;;;;;25.33;17.70;;;7.10;99.90;;;;;;5010098;28;20940;-75
2021/11/14 08:17:30;;;;;;;26.70;17.70;;;7.10;99.90;;;;;;5010335;28;20486;-75
2021/11/14 08:20:00;;;;;;;28.60;17.27;;;7.20;99.90;;;;;;5007732;28;20546;-75
2021/11/14 08:22:25;;;;;;;20.87;16.33;;;7.10;99.90;;;;;;5001372;28;20233;-75
2021/11/14 08:24:51;;;;;;;24.20;15.90;;;7.10;99.90;;;;;;5002957;28;21442;-74
2021/11/14 08:27:17;;;;;;;22.70;15.63;;;7.20;99.90;;;;;;5005640;28;20192;-74
2021/11/14 08:29:42;;;;;;;27.60;16.07;;;7.20;99.90;;;;;;5002366;28;20199;-75
2021/11/14 08:32:08;;;;;;;26.80;17.40;;;7.20;99.90;;;;;;5005039;28;20306;-74
2021/11/14 08:34:34;;;;;;;25.70;15.80;;;7.30;99.90;;;;;;5008631;28;20203;-75
2021/11/14 08:37:00;;;;;;;22.13;14.77;;;7.20;99.90;;;;;;5002598;28;20463;-74
2021/11/14 08:39:26;;;;;;;22.33;15.67;;;7.20;99.90;;;;;;4999261;28;20184;-74
2021/11/14 08:41:51;;;;;;;23.47;14.07;;;7.30;99.90;;;;;;5003047;28;20222;-74
2021/11/14 08:44:17;;;;;;;18.53;14.27;;;7.30;99.90;;;;;;5002877;28;20214;-75
2021/11/14 08:46:43;;;;;;;22.67;14.70;;;7.30;99.90;;;;;;4997399;28;21052;-74
2021/11/14 08:49:09;;;;;;;20.73;14.43;;;7.20;99.90;;;;;;4992126;28;20191;-74
2021/11/14 08:51:35;;;;;;;20.90;14.83;;;7.20;99.90;;;;;;4987526;28;20221;-74
2021/11/14 08:54:01;;;;;;;21.60;13.50;;;7.20;99.90;;;;;;4998811;28;20439;-74
2021/11/14 08:56:28;;;;;;;18.90;13.10;;;7.30;99.90;;;;;;5003598;28;20283;-74
2021/11/14 08:58:54;;;;;;;21.00;14.53;;;7.40;99.90;;;;;;5001724;28;20204;-74
2021/11/14 09:01:20;;;;;;;21.80;15.30;;;7.40;99.90;;;;;;4995201;28;20471;-74
2021/11/14 09:03:46;;;;;;;22.20;14.40;;;7.50;99.90;;;;;;5001768;28;20446;-74
2021/11/14 09:06:11;;;;;;;20.50;13.57;;;7.50;99.90;;;;;;4998886;28;20216;-75
2021/11/14 09:08:37;;;;;;;20.40;15.13;;;7.50;99.90;;;;;;4995141;28;21195;-75
2021/11/14 09:11:03;;;;;;;20.87;15.20;;;7.60;99.90;;;;;;4995679;28;20180;-74
2021/11/14 09:13:29;;;;;;;20.43;14.30;;;7.60;99.90;;;;;;5002898;28;20320;-74
2021/11/14 09:15:58;;;;;;;25.20;15.03;;;7.50;99.90;;;;;;5001625;28;20528;-75
2021/11/14 09:18:25;;;;;;;25.43;15.90;;;7.50;99.90;;;;;;5004224;28;20508;-74
2021/11/14 09:20:52;;;;;;;24.60;14.27;;;7.50;99.90;;;;;;5003005;28;20469;-74
2021/11/14 09:23:18;;;;;;;19.13;14.87;;;7.50;99.90;;;;;;4993584;28;20466;-74
2021/11/14 09:25:44;;;;;;;19.13;13.87;;;7.50;99.90;;;;;;5004914;28;20446;-74
2021/11/14 09:28:17;;;;;;;24.00;16.50;;;7.60;99.90;;;;;;4998582;28;20457;-74
2021/11/14 09:30:45;;;;;;;21.33;15.97;;;7.60;99.90;;;;;;4992748;28;20934;-74
2021/11/14 09:33:12;;;;;;;21.00;14.77;;;7.60;99.90;;;;;;5011847;28;20454;-74
2021/11/14 09:35:38;;;;;;;22.23;15.73;;;7.70;99.90;;;;;;5009919;28;20442;-74
2021/11/14 09:38:05;;;;;;;27.63;16.23;;;7.70;99.90;;;;;;5012125;28;20459;-75
2021/11/14 09:40:31;;;;;;;19.90;14.07;;;7.90;99.90;;;;;;5004274;28;20486;-74
2021/11/14 09:42:58;;;;;;;19.60;14.13;;;7.90;99.90;;;;;;5022638;28;20502;-75
2021/11/14 09:45:28;;;;;;;17.63;13.73;;;8.00;99.90;;;;;;5007179;28;20492;-74
2021/11/14 09:48:05;;;;;;;18.00;13.63;;;8.00;99.90;;;;;;5000340;28;20495;-74
2021/11/14 09:50:52;;;;;;;16.30;13.57;;;8.00;99.90;;;;;;5003748;28;20458;-74
2021/11/14 09:53:19;;;;;;;19.23;12.93;;;8.00;99.90;;;;;;5002691;28;20711;-73
2021/11/14 09:55:45;;;;;;;17.27;13.10;;;8.00;99.90;;;;;;4993977;28;21085;-74
2021/11/14 09:58:11;;;;;;;19.17;13.37;;;8.00;99.90;;;;;;5001446;28;20556;-74
2021/11/14 10:00:40;;;;;;;20.57;13.67;;;8.10;99.90;;;;;;5008414;28;20445;-74
2021/11/14 10:03:20;;;;;;;21.07;13.50;;;8.00;99.90;;;;;;5001573;28;24227;-74
2021/11/14 10:05:58;;;;;;;17.63;12.93;;;8.00;99.90;;;;;;5004698;28;20482;-75
2021/11/14 10:08:25;;;;;;;20.50;13.63;;;7.90;99.90;;;;;;4998496;28;20504;-75
2021/11/14 10:10:57;;;;;;;20.70;13.10;;;7.90;99.90;;;;;;4991171;28;20466;-74
2021/11/14 10:13:33;;;;;;;18.13;13.00;;;7.90;99.90;;;;;;4992015;28;21408;-75
2021/11/14 10:16:04;;;;;;;19.57;13.30;;;7.90;99.90;;;;;;5000757;28;20554;-75
2021/11/14 10:18:30;;;;;;;20.13;15.17;;;8.00;99.90;;;;;;5001788;28;20448;-74
2021/11/14 10:20:59;;;;;;;19.47;15.00;;;7.90;99.90;;;;;;5002977;28;20443;-75
2021/11/14 10:23:25;;;;;;;21.10;13.43;;;8.00;99.90;;;;;;4998635;28;20573;-74
2021/11/14 10:26:12;;;;;;;21.90;14.90;;;8.00;99.90;;;;;;4996933;28;20488;-75
2021/11/14 10:28:41;;;;;;;18.37;13.43;;;7.90;99.90;;;;;;4995829;28;20641;-74
2021/11/14 10:31:08;;;;;;;19.47;14.27;;;7.90;99.90;;;;;;4996258;28;20460;-74
2021/11/14 10:33:34;;;;;;;23.87;15.87;;;7.90;99.90;;;;;;5001360;28;20446;-74
2021/11/14 10:36:04;;;;;;;20.50;13.80;;;8.00;99.90;;;;;;4998684;28;20486;-74
2021/11/14 10:38:35;;;;;;;19.20;15.10;;;8.00;99.90;;;;;;5004184;28;20479;-75
2021/11/14 10:41:05;;;;;;;22.33;13.63;;;8.00;99.90;;;;;;5000796;28;20450;-74
2021/11/14 10:43:32;;;;;;;21.77;14.73;;;8.10;99.90;;;;;;5004669;28;20459;-75
2021/11/14 10:45:59;;;;;;;17.97;13.63;;;8.10;99.90;;;;;;4979144;28;20449;-75
2021/11/14 10:48:28;;;;;;;26.40;13.80;;;8.20;99.90;;;;;;4997524;28;20469;-74
2021/11/14 10:51:02;;;;;;;22.47;13.90;;;8.60;99.90;;;;;;4997210;28;20886;-75
2021/11/14 10:53:32;;;;;;;18.93;14.07;;;8.80;99.90;;;;;;4997697;28;20451;-74
2021/11/14 10:56:01;;;;;;;20.97;13.90;;;8.80;99.90;;;;;;5008531;28;20434;-74
2021/11/14 10:58:28;;;;;;;18.87;12.90;;;8.70;99.90;;;;;;5009097;28;21842;-75
2021/11/14 11:01:00;;;;;;;17.17;13.20;;;8.70;99.90;;;;;;5009863;28;20442;-75
2021/11/14 11:03:35;;;;;;;18.20;12.93;;;8.70;99.90;;;;;;5012353;28;20523;-75
2021/11/14 11:06:03;;;;;;;19.13;12.70;;;8.70;99.90;;;;;;5012674;28;20446;-74
2021/11/14 11:08:30;;;;;;;19.77;13.53;;;8.60;99.90;;;;;;5009976;28;20475;-75
2021/11/14 11:11:01;;;;;;;17.10;12.83;;;8.60;99.90;;;;;;5013581;28;20987;-75
2021/11/14 11:13:32;;;;;;;18.63;12.97;;;8.50;99.90;;;;;;5014321;28;20454;-75
2021/11/14 11:16:09;;;;;;;19.33;13.30;;;8.50;99.90;;;;;;5011422;28;20964;-75
2021/11/14 11:18:38;;;;;;;20.57;12.60;;;8.50;99.90;;;;;;5010712;28;24606;-72
2021/11/14 11:21:05;;;;;;;19.70;13.70;;;8.50;99.90;;;;;;5006706;28;20462;-72
2021/11/14 11:23:33;;;;;;;17.90;13.53;;;8.60;99.90;;;;;;5013295;28;20443;-72
2021/11/14 11:26:02;;;;;;;23.27;14.40;;;8.70;99.90;;;;;;5014980;28;20442;-72
2021/11/14 11:28:41;;;;;;;17.80;12.70;;;8.80;99.90;;;;;;5006157;28;20454;-73
2021/11/14 11:31:15;;;;;;;19.07;11.90;;;8.80;99.90;;;;;;5011500;28;20437;-73
2021/11/14 11:33:44;;;;;;;16.77;11.30;;;8.80;99.90;;;;;;5014025;28;20449;-73
2021/11/14 11:36:11;;;;;;;15.60;11.07;;;8.90;99.90;;;;;;5012650;28;20762;-73
2021/11/14 11:38:42;;;;;;;14.70;10.60;;;8.90;99.90;;;;;;5005167;28;20453;-74
2021/11/14 11:41:09;;;;;;;16.97;11.00;;;8.80;99.90;;;;;;5012007;28;20450;-74
2021/11/14 11:43:35;;;;;;;16.33;10.10;;;8.90;99.90;;;;;;4997327;28;20571;-74
2021/11/14 11:46:25;;;;;;;15.10;10.17;;;8.90;99.90;;;;;;5008080;28;20450;-74
2021/11/14 11:49:19;;;;;;;13.93;9.70;;;9.00;99.90;;;;;;4998538;28;20477;-74
2021/11/14 11:52:06;;;;;;;14.40;9.23;;;9.00;99.90;;;;;;4998660;23;20509;-74
2021/11/14 11:54:40;;;;;;;12.53;9.47;;;9.00;99.90;;;;;;4981009;28;20466;-74
2021/11/14 12:00:55;;;;;;;12.33;9.60;;;9.10;99.90;;;;;;4955800;28;20472;-74
2021/11/14 12:03:31;;;;;;;16.13;10.20;;;9.10;99.90;;;;;;4956120;28;20553;-75
2021/11/14 12:06:22;;;;;;;15.53;10.47;;;9.10;99.90;;;;;;4955848;28;20803;-74
2021/11/14 12:08:54;;;;;;;15.40;9.80;;;9.00;99.90;;;;;;4963232;28;21152;-73
2021/11/14 12:11:37;;;;;;;14.10;10.27;;;9.10;99.90;;;;;;4969808;28;21091;-74
2021/11/14 12:14:35;;;;;;;15.03;10.27;;;9.10;99.90;;;;;;4980575;28;20474;-73
2021/11/14 12:17:07;;;;;;;14.47;9.90;;;9.00;99.90;;;;;;4973882;28;20883;-74
2021/11/14 12:19:36;;;;;;;13.00;9.60;;;9.00;99.90;;;;;;4979238;28;20558;-73
2021/11/14 12:22:34;;;;;;;13.97;10.60;;;9.10;99.90;;;;;;4976839;28;20484;-74
2021/11/14 12:25:00;;;;;;;16.13;10.17;;;9.10;99.90;;;;;;4962765;28;21023;-73
2021/11/14 12:27:38;;;;;;;15.73;10.50;;;9.10;99.90;;;;;;4982456;28;20972;-74
2021/11/14 12:30:13;;;;;;;15.53;10.50;;;9.10;99.90;;;;;;4975824;28;20554;-75
2021/11/14 12:32:42;;;;;;;14.27;10.67;;;9.10;99.90;;;;;;4977836;28;20461;-75
2021/11/14 12:35:23;;;;;;;16.30;10.67;;;9.10;99.90;;;;;;4978519;28;20472;-75
2021/11/14 12:37:50;;;;;;;14.63;10.30;;;9.10;99.90;;;;;;4979809;28;20459;-75
2021/11/14 12:40:22;;;;;;;13.40;9.10;;;9.10;99.90;;;;;;4975677;28;20440;-75
2021/11/14 12:42:51;;;;;;;13.03;9.40;;;9.10;99.90;;;;;;4977686;28;21514;-74
2021/11/14 12:45:19;;;;;;;11.77;9.07;;;9.10;99.90;;;;;;4976833;28;20626;-74
2021/11/14 12:47:48;;;;;;;10.80;8.30;;;9.10;99.90;;;;;;4981573;28;21376;-75
2021/11/14 12:50:22;;;;;;;13.63;8.70;;;9.10;99.90;;;;;;4976203;28;20485;-75